Time;durP1;ratioP1;P1;durP2;ratioP2;P2;SDS_P1;SDS_P2;PMS_P1;PMS_P2;Temp;Humidity;BMP_temperature;BMP_pressure;BME280_temperature;BME280_humidity;BME280_pressure;Samples;Min_cycle;Max_cycle;Signal;HPM_P1;HPM_P2
2023/10/30 00:00:33;;;;;;;0.00;0.00;;;;;;;;;;1774226;27;20318;-62
2023/10/30 00:01:25;;;;;;;0.00;0.00;;;;;;;;;;1773926;27;20204;-62
2023/10/30 00:02:16;;;;;;;0.00;0.00;;;;;;;;;;1774152;27;20287;-62
2023/10/30 00:03:11;;;;;;;0.00;0.00;;;;;;;;;;1774239;27;20205;-61
2023/10/30 00:04:03;;;;;;;0.00;0.00;;;;;;;;;;1773973;27;20207;-61
2023/10/30 00:04:54;;;;;;;0.00;0.00;;;;;;;;;;1773927;27;20703;-61
2023/10/30 00:05:45;;;;;;;0.00;0.00;;;;;;;;;;1773915;27;20222;-62
2023/10/30 00:06:37;;;;;;;0.00;0.00;;;;;;;;;;1774290;27;20591;-62
2023/10/30 00:07:28;;;;;;;0.00;0.00;;;;;;;;;;1774186;27;21024;-60
2023/10/30 00:08:21;;;;;;;0.00;0.00;;;;;;;;;;1773912;27;20238;-62
2023/10/30 00:09:15;;;;;;;0.00;0.00;;;;;;;;;;1774225;27;20212;-62
2023/10/30 00:10:07;;;;;;;0.00;0.00;;;;;;;;;;1773540;27;20206;-61
2023/10/30 00:10:58;;;;;;;0.00;0.00;;;;;;;;;;1773981;27;20215;-61
2023/10/30 00:11:50;;;;;;;0.00;0.00;;;;;;;;;;1773758;27;20493;-61
2023/10/30 00:12:41;;;;;;;0.00;0.00;;;;;;;;;;1774197;27;20239;-62
2023/10/30 00:13:32;;;;;;;0.00;0.00;;;;;;;;;;1771435;27;20666;-61
2023/10/30 00:14:24;;;;;;;0.00;0.00;;;;;;;;;;1774024;27;20658;-61
2023/10/30 00:15:15;;;;;;;0.00;0.00;;;;;;;;;;1773522;27;20940;-61
2023/10/30 00:16:09;;;;;;;0.00;0.00;;;;;;;;;;1773027;27;20196;-61
2023/10/30 00:17:00;;;;;;;0.00;0.00;;;;;;;;;;1773929;27;20213;-61
2023/10/30 00:17:51;;;;;;;0.00;0.00;;;;;;;;;;1774060;27;20302;-62
2023/10/30 00:18:43;;;;;;;0.00;0.00;;;;;;;;;;1773791;27;20203;-61
2023/10/30 00:19:34;;;;;;;0.00;0.00;;;;;;;;;;1774423;27;20746;-61
2023/10/30 00:20:26;;;;;;;0.00;0.00;;;;;;;;;;1772931;27;20207;-62
2023/10/30 00:21:17;;;;;;;0.00;0.00;;;;;;;;;;1772424;27;20364;-62
2023/10/30 00:22:11;;;;;;;0.00;0.00;;;;;;;;;;1773420;27;20199;-61
2023/10/30 00:23:02;;;;;;;0.00;0.00;;;;;;;;;;1774097;27;20547;-61
2023/10/30 00:23:55;;;;;;;0.00;0.00;;;;;;;;;;1773621;27;20278;-61
2023/10/30 00:24:46;;;;;;;0.00;0.00;;;;;;;;;;1773690;27;20238;-61
2023/10/30 00:25:38;;;;;;;0.00;0.00;;;;;;;;;;1774353;27;20208;-61
2023/10/30 00:26:30;;;;;;;0.00;0.00;;;;;;;;;;1773460;27;20214;-62
2023/10/30 00:27:21;;;;;;;0.00;0.00;;;;;;;;;;1774086;27;20298;-61
2023/10/30 00:28:12;;;;;;;0.00;0.00;;;;;;;;;;1770722;27;20519;-61
2023/10/30 00:29:04;;;;;;;0.00;0.00;;;;;;;;;;1773873;27;20214;-61
2023/10/30 00:29:55;;;;;;;0.00;0.00;;;;;;;;;;1773699;27;20242;-61
2023/10/30 00:30:46;;;;;;;0.00;0.00;;;;;;;;;;1773753;27;20726;-61
2023/10/30 00:31:38;;;;;;;0.00;0.00;;;;;;;;;;1774251;27;20248;-61
2023/10/30 00:32:30;;;;;;;0.00;0.00;;;;;;;;;;1773718;27;20294;-61
2023/10/30 00:33:22;;;;;;;0.00;0.00;;;;;;;;;;1773840;27;20208;-61
2023/10/30 00:34:13;;;;;;;0.00;0.00;;;;;;;;;;1773948;27;20254;-61
2023/10/30 00:35:05;;;;;;;0.00;0.00;;;;;;;;;;1773600;27;20192;-61
2023/10/30 00:35:57;;;;;;;0.00;0.00;;;;;;;;;;1774023;27;20202;-61
2023/10/30 00:36:48;;;;;;;0.00;0.00;;;;;;;;;;1773457;27;20291;-62
2023/10/30 00:37:40;;;;;;;0.00;0.00;;;;;;;;;;1774490;27;20286;-61
2023/10/30 00:38:31;;;;;;;0.00;0.00;;;;;;;;;;1773827;27;20211;-61
2023/10/30 00:39:24;;;;;;;0.00;0.00;;;;;;;;;;1773851;27;20260;-61
2023/10/30 00:40:16;;;;;;;0.00;0.00;;;;;;;;;;1773857;27;20306;-61
2023/10/30 00:41:08;;;;;;;0.00;0.00;;;;;;;;;;1773506;27;20261;-61
2023/10/30 00:42:00;;;;;;;0.03;0.03;;;;;;;;;;1773419;27;20203;-60
2023/10/30 00:42:51;;;;;;;0.00;0.00;;;;;;;;;;1773914;27;20590;-61
2023/10/30 00:43:43;;;;;;;0.00;0.00;;;;;;;;;;1774214;27;20207;-61
2023/10/30 00:44:37;;;;;;;0.00;0.00;;;;;;;;;;1774667;27;20195;-64
2023/10/30 00:45:29;;;;;;;0.00;0.00;;;;;;;;;;1773270;27;20219;-62
2023/10/30 00:46:20;;;;;;;0.00;0.00;;;;;;;;;;1773994;27;20891;-61
2023/10/30 00:47:11;;;;;;;0.00;0.00;;;;;;;;;;1773447;27;20260;-61
2023/10/30 00:48:04;;;;;;;0.00;0.00;;;;;;;;;;1774139;27;20267;-62
2023/10/30 00:48:55;;;;;;;0.00;0.00;;;;;;;;;;1773805;27;20207;-62
2023/10/30 00:49:46;;;;;;;0.00;0.00;;;;;;;;;;1773289;27;20195;-61
2023/10/30 00:50:38;;;;;;;0.00;0.00;;;;;;;;;;1773992;27;20203;-62
2023/10/30 00:51:29;;;;;;;0.00;0.00;;;;;;;;;;1773632;27;20250;-62
2023/10/30 00:52:21;;;;;;;0.00;0.00;;;;;;;;;;1773541;27;20203;-62
2023/10/30 00:53:12;;;;;;;0.00;0.00;;;;;;;;;;1773313;27;20294;-61
2023/10/30 00:54:03;;;;;;;0.00;0.00;;;;;;;;;;1773478;27;20291;-62
2023/10/30 00:54:56;;;;;;;0.00;0.00;;;;;;;;;;1773746;27;20208;-61
2023/10/30 00:55:49;;;;;;;0.00;0.00;;;;;;;;;;1773621;27;20638;-61
2023/10/30 00:56:41;;;;;;;0.00;0.00;;;;;;;;;;1773802;27;20195;-61
2023/10/30 00:57:32;;;;;;;0.00;0.00;;;;;;;;;;1773649;27;20220;-60
2023/10/30 00:58:24;;;;;;;0.00;0.00;;;;;;;;;;1770951;27;20219;-61
2023/10/30 00:59:15;;;;;;;0.00;0.00;;;;;;;;;;1773932;27;20358;-62
2023/10/30 01:00:07;;;;;;;0.00;0.00;;;;;;;;;;1773468;27;20252;-60
2023/10/30 01:00:59;;;;;;;0.00;0.00;;;;;;;;;;1773905;27;20713;-61
2023/10/30 01:01:50;;;;;;;0.00;0.00;;;;;;;;;;1773220;27;20234;-60
2023/10/30 01:02:41;;;;;;;0.00;0.00;;;;;;;;;;1774228;27;20268;-61
2023/10/30 01:03:33;;;;;;;0.00;0.00;;;;;;;;;;1773511;27;20259;-61
2023/10/30 01:04:24;;;;;;;0.00;0.00;;;;;;;;;;1773506;27;20288;-61
2023/10/30 01:05:15;;;;;;;0.00;0.00;;;;;;;;;;1773481;27;20223;-61
2023/10/30 01:06:07;;;;;;;0.00;0.00;;;;;;;;;;1773616;27;20210;-60
2023/10/30 01:06:59;;;;;;;0.00;0.00;;;;;;;;;;1773613;27;20291;-60
2023/10/30 01:07:50;;;;;;;0.00;0.00;;;;;;;;;;1773751;27;20201;-61
2023/10/30 01:08:42;;;;;;;0.00;0.00;;;;;;;;;;1773878;27;20290;-60
2023/10/30 01:09:33;;;;;;;0.00;0.00;;;;;;;;;;1773803;27;20250;-61
2023/10/30 01:10:26;;;;;;;0.00;0.00;;;;;;;;;;1773358;27;20206;-62
2023/10/30 01:11:18;;;;;;;0.00;0.00;;;;;;;;;;1773675;27;20270;-60
2023/10/30 01:12:09;;;;;;;0.00;0.00;;;;;;;;;;1773257;27;20241;-60
2023/10/30 01:13:00;;;;;;;0.00;0.00;;;;;;;;;;1773670;27;20195;-61
2023/10/30 01:13:52;;;;;;;0.00;0.00;;;;;;;;;;1773485;27;20203;-60
2023/10/30 01:14:43;;;;;;;0.00;0.00;;;;;;;;;;1773838;27;20291;-60
2023/10/30 01:15:34;;;;;;;0.00;0.00;;;;;;;;;;1773457;27;20212;-61
2023/10/30 01:16:26;;;;;;;0.00;0.00;;;;;;;;;;1773240;27;20256;-61
2023/10/30 01:17:17;;;;;;;0.00;0.00;;;;;;;;;;1773529;27;20294;-61
2023/10/30 01:18:08;;;;;;;0.00;0.00;;;;;;;;;;1773581;27;20678;-61
2023/10/30 01:19:00;;;;;;;0.00;0.00;;;;;;;;;;1773275;27;20282;-60
2023/10/30 01:19:51;;;;;;;0.00;0.00;;;;;;;;;;1772938;27;20238;-59
2023/10/30 01:20:42;;;;;;;0.00;0.00;;;;;;;;;;1773716;27;20238;-62
2023/10/30 01:21:35;;;;;;;0.00;0.00;;;;;;;;;;1773522;27;20231;-61
2023/10/30 01:22:26;;;;;;;0.00;0.00;;;;;;;;;;1773349;27;20259;-60
2023/10/30 01:23:18;;;;;;;0.00;0.00;;;;;;;;;;1773196;27;20222;-60
2023/10/30 01:24:09;;;;;;;0.00;0.00;;;;;;;;;;1773047;27;20310;-61
2023/10/30 01:25:01;;;;;;;0.00;0.00;;;;;;;;;;1773064;27;20276;-61
2023/10/30 01:25:54;;;;;;;0.00;0.00;;;;;;;;;;1773739;27;20203;-62
2023/10/30 01:26:45;;;;;;;0.00;0.00;;;;;;;;;;1773453;27;20199;-61
2023/10/30 01:27:37;;;;;;;0.00;0.00;;;;;;;;;;1773979;27;20206;-61
2023/10/30 01:28:29;;;;;;;0.00;0.00;;;;;;;;;;1772774;27;20246;-61
2023/10/30 01:29:21;;;;;;;0.00;0.00;;;;;;;;;;1773558;27;20570;-61
2023/10/30 01:30:13;;;;;;;0.00;0.00;;;;;;;;;;1773520;27;20291;-60
2023/10/30 01:31:04;;;;;;;0.00;0.00;;;;;;;;;;1773472;27;20257;-59
2023/10/30 01:31:56;;;;;;;0.00;0.00;;;;;;;;;;1773582;27;20657;-60
2023/10/30 01:32:47;;;;;;;0.00;0.00;;;;;;;;;;1773902;27;20233;-60
2023/10/30 01:33:39;;;;;;;0.00;0.00;;;;;;;;;;1773724;27;20286;-60
2023/10/30 01:34:30;;;;;;;0.00;0.00;;;;;;;;;;1773713;27;20343;-59
2023/10/30 01:35:21;;;;;;;0.00;0.00;;;;;;;;;;1773117;27;20195;-59
2023/10/30 01:36:13;;;;;;;0.00;0.00;;;;;;;;;;1773521;27;20612;-59
2023/10/30 01:37:04;;;;;;;0.00;0.00;;;;;;;;;;1773217;27;20228;-60
2023/10/30 01:37:56;;;;;;;0.00;0.00;;;;;;;;;;1773691;27;20594;-59
2023/10/30 01:38:48;;;;;;;0.00;0.00;;;;;;;;;;1773738;27;20490;-60
2023/10/30 01:39:40;;;;;;;0.00;0.00;;;;;;;;;;1766779;27;20222;-60
2023/10/30 01:40:31;;;;;;;0.00;0.00;;;;;;;;;;1773344;27;20937;-59
2023/10/30 01:41:24;;;;;;;0.00;0.00;;;;;;;;;;1773294;27;20528;-62
2023/10/30 01:42:16;;;;;;;0.00;0.00;;;;;;;;;;1773124;27;20207;-61
2023/10/30 01:43:08;;;;;;;0.00;0.00;;;;;;;;;;1773507;27;20204;-59
2023/10/30 01:44:00;;;;;;;0.00;0.00;;;;;;;;;;1773205;27;20198;-60
2023/10/30 01:44:55;;;;;;;0.00;0.00;;;;;;;;;;1773539;27;20238;-60
2023/10/30 01:45:48;;;;;;;0.00;0.00;;;;;;;;;;1773151;27;20227;-61
2023/10/30 01:46:40;;;;;;;0.00;0.00;;;;;;;;;;1769101;27;20315;-62
2023/10/30 01:47:31;;;;;;;0.00;0.00;;;;;;;;;;1773451;27;20333;-62
2023/10/30 01:48:22;;;;;;;0.00;0.00;;;;;;;;;;1773276;27;20238;-61
2023/10/30 01:49:14;;;;;;;0.00;0.00;;;;;;;;;;1773317;27;20207;-61
2023/10/30 01:50:07;;;;;;;0.00;0.00;;;;;;;;;;1771394;27;20291;-60
2023/10/30 01:51:00;;;;;;;0.00;0.00;;;;;;;;;;1772465;27;20216;-61
2023/10/30 01:51:52;;;;;;;0.00;0.00;;;;;;;;;;1773207;27;20196;-61
2023/10/30 01:52:43;;;;;;;0.00;0.00;;;;;;;;;;1773585;27;20199;-62
2023/10/30 01:53:35;;;;;;;0.00;0.00;;;;;;;;;;1773356;27;20231;-62
2023/10/30 01:54:27;;;;;;;0.00;0.00;;;;;;;;;;1773360;27;20691;-62
2023/10/30 01:55:18;;;;;;;0.00;0.00;;;;;;;;;;1773289;27;20244;-62
2023/10/30 01:56:09;;;;;;;0.00;0.00;;;;;;;;;;1773046;27;20670;-62
2023/10/30 01:57:03;;;;;;;0.00;0.00;;;;;;;;;;1773446;27;20191;-61
2023/10/30 01:57:54;;;;;;;0.00;0.00;;;;;;;;;;1773454;27;20231;-63
2023/10/30 01:58:47;;;;;;;0.00;0.00;;;;;;;;;;1773464;27;20191;-61
2023/10/30 01:59:38;;;;;;;0.00;0.00;;;;;;;;;;1773587;27;20302;-61
2023/10/30 02:00:29;;;;;;;0.00;0.00;;;;;;;;;;1772940;27;20654;-62
2023/10/30 02:01:22;;;;;;;0.00;0.00;;;;;;;;;;1773681;27;21053;-61
2023/10/30 02:02:13;;;;;;;0.00;0.00;;;;;;;;;;1773108;27;20300;-61
2023/10/30 02:03:04;;;;;;;0.00;0.00;;;;;;;;;;1773583;27;20251;-62
2023/10/30 02:03:57;;;;;;;0.00;0.00;;;;;;;;;;1773449;27;20202;-62
2023/10/30 02:04:48;;;;;;;0.00;0.00;;;;;;;;;;1773554;27;20734;-61
2023/10/30 02:05:40;;;;;;;0.00;0.00;;;;;;;;;;1772745;27;20230;-62
2023/10/30 02:06:32;;;;;;;0.00;0.00;;;;;;;;;;1773156;27;20210;-62
2023/10/30 02:07:23;;;;;;;0.00;0.00;;;;;;;;;;1773559;27;21080;-62
2023/10/30 02:08:16;;;;;;;0.00;0.00;;;;;;;;;;1773645;27;20230;-62
2023/10/30 02:09:08;;;;;;;0.00;0.00;;;;;;;;;;1773626;27;20199;-62
2023/10/30 02:09:59;;;;;;;0.00;0.00;;;;;;;;;;1773321;27;20228;-62
2023/10/30 02:10:50;;;;;;;0.00;0.00;;;;;;;;;;1773381;27;20191;-62
2023/10/30 02:11:42;;;;;;;0.00;0.00;;;;;;;;;;1773880;27;20687;-62
2023/10/30 02:12:34;;;;;;;0.00;0.00;;;;;;;;;;1772768;27;20260;-62
2023/10/30 02:13:26;;;;;;;0.00;0.00;;;;;;;;;;1773570;27;20211;-62
2023/10/30 02:14:18;;;;;;;0.00;0.00;;;;;;;;;;1773798;27;20226;-62
2023/10/30 02:15:09;;;;;;;0.00;0.00;;;;;;;;;;1773256;27;20208;-63
2023/10/30 02:16:01;;;;;;;0.00;0.00;;;;;;;;;;1773803;27;20202;-62
2023/10/30 02:16:52;;;;;;;0.00;0.00;;;;;;;;;;1773378;27;20223;-62
2023/10/30 02:17:43;;;;;;;0.00;0.00;;;;;;;;;;1767244;27;20192;-62
2023/10/30 02:18:35;;;;;;;0.00;0.00;;;;;;;;;;1772579;27;20271;-62
2023/10/30 02:19:28;;;;;;;0.00;0.00;;;;;;;;;;1773685;27;20207;-63
2023/10/30 02:20:19;;;;;;;0.00;0.00;;;;;;;;;;1773396;27;20203;-60
2023/10/30 02:21:12;;;;;;;0.00;0.00;;;;;;;;;;1773544;27;20223;-61
2023/10/30 02:22:03;;;;;;;0.00;0.00;;;;;;;;;;1773586;27;21105;-62
2023/10/30 02:22:54;;;;;;;0.00;0.00;;;;;;;;;;1773831;27;20287;-62
2023/10/30 02:23:46;;;;;;;0.00;0.00;;;;;;;;;;1773936;27;20226;-62
2023/10/30 02:24:37;;;;;;;0.00;0.00;;;;;;;;;;1767024;27;20721;-61
2023/10/30 02:25:31;;;;;;;0.00;0.00;;;;;;;;;;1766084;28;20227;-62
2023/10/30 02:26:23;;;;;;;0.00;0.00;;;;;;;;;;1766608;28;20587;-62
2023/10/30 02:27:14;;;;;;;0.00;0.00;;;;;;;;;;1766337;28;20241;-61
2023/10/30 02:28:06;;;;;;;0.00;0.00;;;;;;;;;;1766584;28;20352;-63
2023/10/30 02:29:01;;;;;;;0.00;0.00;;;;;;;;;;1766461;28;20677;-62
2023/10/30 02:29:52;;;;;;;0.00;0.00;;;;;;;;;;1766291;28;20196;-63
2023/10/30 02:30:44;;;;;;;0.00;0.00;;;;;;;;;;1766998;28;20204;-63
2023/10/30 02:31:35;;;;;;;0.00;0.00;;;;;;;;;;1766488;28;20240;-63
2023/10/30 02:32:27;;;;;;;0.00;0.00;;;;;;;;;;1766658;28;20697;-63
2023/10/30 02:33:18;;;;;;;0.00;0.00;;;;;;;;;;1766302;28;20293;-63
2023/10/30 02:34:09;;;;;;;0.00;0.00;;;;;;;;;;1766725;28;20648;-62
2023/10/30 02:35:03;;;;;;;0.00;0.00;;;;;;;;;;1766245;28;20196;-62
2023/10/30 02:35:54;;;;;;;0.00;0.00;;;;;;;;;;1766405;28;20192;-63
2023/10/30 02:36:46;;;;;;;0.00;0.00;;;;;;;;;;1766733;28;20204;-61
2023/10/30 02:37:37;;;;;;;0.00;0.00;;;;;;;;;;1766545;28;20295;-61
2023/10/30 02:38:29;;;;;;;0.00;0.00;;;;;;;;;;1766190;27;20201;-62
2023/10/30 02:39:20;;;;;;;0.00;0.00;;;;;;;;;;1767600;27;20680;-62
2023/10/30 02:40:11;;;;;;;0.00;0.00;;;;;;;;;;1767466;27;20200;-61
2023/10/30 02:41:05;;;;;;;0.00;0.00;;;;;;;;;;1767896;27;20284;-62
2023/10/30 02:41:56;;;;;;;0.00;0.00;;;;;;;;;;1767350;27;20948;-61
2023/10/30 02:42:47;;;;;;;0.00;0.00;;;;;;;;;;1768626;27;20202;-62
2023/10/30 02:43:39;;;;;;;0.00;0.00;;;;;;;;;;1767857;27;20208;-64
2023/10/30 02:44:30;;;;;;;0.00;0.00;;;;;;;;;;1767874;27;20653;-64
2023/10/30 02:45:22;;;;;;;0.00;0.00;;;;;;;;;;1767657;27;20209;-62
2023/10/30 02:46:13;;;;;;;0.00;0.00;;;;;;;;;;1767411;27;20308;-62
2023/10/30 02:47:05;;;;;;;0.00;0.00;;;;;;;;;;1767434;27;20200;-62
2023/10/30 02:47:57;;;;;;;0.00;0.00;;;;;;;;;;1767852;27;20197;-61
2023/10/30 02:48:48;;;;;;;0.00;0.00;;;;;;;;;;1767851;27;20284;-62
2023/10/30 02:49:39;;;;;;;0.00;0.00;;;;;;;;;;1767784;27;20214;-62
2023/10/30 02:50:31;;;;;;;0.00;0.00;;;;;;;;;;1766808;27;20196;-61
2023/10/30 02:51:22;;;;;;;0.00;0.00;;;;;;;;;;1767910;27;20208;-62
2023/10/30 02:52:13;;;;;;;0.00;0.00;;;;;;;;;;1767115;27;20266;-62
2023/10/30 02:53:06;;;;;;;0.00;0.00;;;;;;;;;;1767578;27;20279;-62
2023/10/30 02:53:57;;;;;;;0.00;0.00;;;;;;;;;;1767589;27;20228;-62
2023/10/30 02:54:48;;;;;;;0.00;0.00;;;;;;;;;;1767513;27;20200;-63
2023/10/30 02:55:40;;;;;;;0.00;0.00;;;;;;;;;;1767380;27;20215;-62
2023/10/30 02:56:32;;;;;;;0.00;0.00;;;;;;;;;;1766889;27;20263;-62
2023/10/30 02:57:24;;;;;;;0.00;0.00;;;;;;;;;;1767551;27;20244;-61
2023/10/30 02:58:16;;;;;;;0.00;0.00;;;;;;;;;;1767324;27;20211;-62
2023/10/30 02:59:07;;;;;;;0.00;0.00;;;;;;;;;;1767517;27;20658;-62
2023/10/30 02:59:59;;;;;;;0.00;0.00;;;;;;;;;;1767286;27;20231;-61
2023/10/30 03:00:53;;;;;;;0.00;0.00;;;;;;;;;;1767725;27;20721;-62
2023/10/30 03:01:45;;;;;;;0.00;0.00;;;;;;;;;;1765785;27;20548;-62
2023/10/30 03:02:36;;;;;;;0.00;0.00;;;;;;;;;;1767498;27;20235;-61
2023/10/30 03:03:28;;;;;;;0.00;0.00;;;;;;;;;;1767480;27;20265;-62
2023/10/30 03:04:19;;;;;;;0.00;0.00;;;;;;;;;;1767668;27;20252;-63
2023/10/30 03:05:11;;;;;;;0.00;0.00;;;;;;;;;;1766972;27;20620;-62
2023/10/30 03:06:03;;;;;;;0.00;0.00;;;;;;;;;;1767238;27;20259;-63
2023/10/30 03:06:54;;;;;;;0.00;0.00;;;;;;;;;;1767454;27;20250;-63
2023/10/30 03:07:46;;;;;;;0.00;0.00;;;;;;;;;;1768021;27;20218;-62
2023/10/30 03:08:37;;;;;;;0.00;0.00;;;;;;;;;;1767345;27;20671;-62
2023/10/30 03:09:28;;;;;;;0.00;0.00;;;;;;;;;;1767313;27;20308;-62
2023/10/30 03:10:21;;;;;;;0.00;0.00;;;;;;;;;;1767513;27;20200;-62
2023/10/30 03:11:12;;;;;;;0.00;0.00;;;;;;;;;;1767270;27;20220;-63
2023/10/30 03:12:05;;;;;;;0.00;0.00;;;;;;;;;;1767297;27;20204;-62
2023/10/30 03:12:57;;;;;;;0.00;0.00;;;;;;;;;;1767094;27;20196;-62
2023/10/30 03:13:48;;;;;;;0.00;0.00;;;;;;;;;;1766597;27;20200;-62
2023/10/30 03:14:39;;;;;;;0.00;0.00;;;;;;;;;;1767552;27;20236;-62
2023/10/30 03:15:31;;;;;;;0.00;0.00;;;;;;;;;;1766855;27;20197;-62
2023/10/30 03:16:22;;;;;;;0.00;0.00;;;;;;;;;;1767319;27;20236;-62
2023/10/30 03:17:13;;;;;;;0.00;0.00;;;;;;;;;;1766895;27;20304;-62
2023/10/30 03:18:06;;;;;;;0.00;0.00;;;;;;;;;;1770405;27;20207;-62
2023/10/30 03:18:57;;;;;;;0.00;0.00;;;;;;;;;;1767276;27;20234;-62
2023/10/30 03:19:48;;;;;;;0.00;0.00;;;;;;;;;;1767080;27;20678;-62
2023/10/30 03:20:40;;;;;;;0.00;0.00;;;;;;;;;;1767079;27;20329;-62
2023/10/30 03:21:31;;;;;;;0.00;0.00;;;;;;;;;;1766979;27;20254;-61
2023/10/30 03:22:23;;;;;;;0.00;0.00;;;;;;;;;;1767115;27;20302;-61
2023/10/30 03:23:15;;;;;;;0.00;0.00;;;;;;;;;;1767156;27;20295;-62
2023/10/30 03:24:06;;;;;;;0.00;0.00;;;;;;;;;;1769574;27;20212;-62
2023/10/30 03:24:58;;;;;;;0.03;0.03;;;;;;;;;;1774127;27;20243;-62
2023/10/30 03:25:49;;;;;;;0.00;0.00;;;;;;;;;;1774674;27;20640;-62
2023/10/30 03:26:42;;;;;;;0.00;0.00;;;;;;;;;;1774173;27;20291;-62
2023/10/30 03:27:34;;;;;;;0.00;0.00;;;;;;;;;;1772753;27;20203;-62
2023/10/30 03:28:26;;;;;;;0.00;0.00;;;;;;;;;;1773329;27;20246;-62
2023/10/30 03:29:17;;;;;;;0.00;0.00;;;;;;;;;;1774588;27;20751;-62
2023/10/30 03:30:10;;;;;;;0.00;0.00;;;;;;;;;;1774077;27;20686;-62
2023/10/30 03:31:06;;;;;;;0.00;0.00;;;;;;;;;;1774533;27;20219;-61
2023/10/30 03:31:57;;;;;;;0.00;0.00;;;;;;;;;;1774108;27;20589;-61
2023/10/30 03:32:48;;;;;;;0.00;0.00;;;;;;;;;;1775044;27;20217;-62
2023/10/30 03:33:40;;;;;;;0.00;0.00;;;;;;;;;;1774338;27;20200;-62
2023/10/30 03:34:31;;;;;;;0.00;0.00;;;;;;;;;;1774371;27;20230;-61
2023/10/30 03:35:22;;;;;;;0.00;0.00;;;;;;;;;;1774165;27;20619;-62
2023/10/30 03:36:19;;;;;;;0.00;0.00;;;;;;;;;;1774070;27;20318;-61
2023/10/30 03:37:10;;;;;;;0.00;0.00;;;;;;;;;;1774338;27;20654;-61
2023/10/30 03:38:01;;;;;;;0.00;0.00;;;;;;;;;;1774341;27;20198;-62
2023/10/30 03:38:53;;;;;;;0.00;0.00;;;;;;;;;;1774393;27;20211;-62
2023/10/30 03:39:44;;;;;;;0.00;0.00;;;;;;;;;;1774575;27;20303;-61
2023/10/30 03:40:36;;;;;;;0.00;0.00;;;;;;;;;;1773922;27;20195;-61
2023/10/30 03:41:28;;;;;;;0.00;0.00;;;;;;;;;;1773970;27;20762;-61
2023/10/30 03:42:19;;;;;;;0.00;0.00;;;;;;;;;;1773975;27;20291;-61
2023/10/30 03:43:14;;;;;;;0.00;0.00;;;;;;;;;;1774281;27;20210;-62
2023/10/30 03:44:05;;;;;;;0.00;0.00;;;;;;;;;;1774278;27;20619;-62
2023/10/30 03:44:56;;;;;;;0.00;0.00;;;;;;;;;;1774456;27;20602;-61
2023/10/30 03:45:48;;;;;;;0.00;0.00;;;;;;;;;;1774336;27;20203;-61
2023/10/30 03:46:39;;;;;;;0.00;0.00;;;;;;;;;;1773797;27;20200;-62
2023/10/30 03:47:31;;;;;;;0.00;0.00;;;;;;;;;;1774387;27;20200;-62
2023/10/30 03:48:23;;;;;;;0.00;0.00;;;;;;;;;;1773888;27;20327;-62
2023/10/30 03:49:14;;;;;;;0.00;0.00;;;;;;;;;;1774367;27;20290;-62
2023/10/30 03:50:06;;;;;;;0.00;0.00;;;;;;;;;;1773314;27;20327;-62
2023/10/30 03:50:57;;;;;;;0.00;0.00;;;;;;;;;;1774358;27;20615;-63
2023/10/30 03:51:49;;;;;;;0.00;0.00;;;;;;;;;;1769828;27;20636;-62
2023/10/30 03:52:40;;;;;;;0.00;0.00;;;;;;;;;;1773059;27;20204;-61
2023/10/30 03:53:31;;;;;;;0.00;0.00;;;;;;;;;;1773994;27;20195;-62
2023/10/30 03:54:23;;;;;;;0.00;0.00;;;;;;;;;;1774404;27;20200;-61
2023/10/30 03:55:15;;;;;;;0.00;0.00;;;;;;;;;;1773783;27;20639;-61
2023/10/30 03:56:06;;;;;;;0.00;0.00;;;;;;;;;;1774076;27;20266;-61
2023/10/30 03:56:58;;;;;;;0.00;0.00;;;;;;;;;;1774276;27;20234;-61
2023/10/30 03:57:49;;;;;;;0.00;0.00;;;;;;;;;;1774696;27;20265;-62
2023/10/30 03:58:43;;;;;;;0.00;0.00;;;;;;;;;;1774332;27;20612;-61
2023/10/30 03:59:34;;;;;;;0.00;0.00;;;;;;;;;;1774102;27;20331;-62
2023/10/30 04:00:25;;;;;;;0.00;0.00;;;;;;;;;;1774208;27;20696;-62
2023/10/30 04:01:17;;;;;;;0.00;0.00;;;;;;;;;;1773390;27;20223;-62
2023/10/30 04:02:09;;;;;;;0.00;0.00;;;;;;;;;;1772911;27;20231;-62
2023/10/30 04:03:01;;;;;;;0.00;0.00;;;;;;;;;;1774184;27;20513;-62
2023/10/30 04:03:52;;;;;;;0.00;0.00;;;;;;;;;;1774159;27;20233;-62
2023/10/30 04:04:43;;;;;;;0.00;0.00;;;;;;;;;;1774292;27;20219;-62
2023/10/30 04:05:35;;;;;;;0.00;0.00;;;;;;;;;;1773836;27;20279;-62
2023/10/30 04:06:26;;;;;;;0.00;0.00;;;;;;;;;;1771858;27;20220;-61
2023/10/30 04:07:17;;;;;;;0.00;0.00;;;;;;;;;;1774028;27;20483;-61
2023/10/30 04:08:09;;;;;;;0.00;0.00;;;;;;;;;;1774132;27;20196;-62
2023/10/30 04:09:02;;;;;;;0.00;0.00;;;;;;;;;;1774127;27;20256;-63
2023/10/30 04:09:54;;;;;;;0.00;0.00;;;;;;;;;;1774209;27;20310;-63
2023/10/30 04:10:45;;;;;;;0.00;0.00;;;;;;;;;;1774070;27;20692;-63
2023/10/30 04:11:36;;;;;;;0.00;0.00;;;;;;;;;;1773771;27;20191;-62
2023/10/30 04:12:28;;;;;;;0.00;0.00;;;;;;;;;;1774253;27;20206;-62
2023/10/30 04:13:19;;;;;;;0.00;0.00;;;;;;;;;;1773756;27;20214;-62
2023/10/30 04:14:13;;;;;;;0.00;0.00;;;;;;;;;;1774234;27;20265;-63
2023/10/30 04:15:04;;;;;;;0.00;0.00;;;;;;;;;;1773792;27;20261;-61
2023/10/30 04:15:55;;;;;;;0.00;0.00;;;;;;;;;;1774286;27;20219;-61
2023/10/30 04:16:47;;;;;;;0.00;0.00;;;;;;;;;;1773873;27;20207;-62
2023/10/30 04:17:39;;;;;;;0.00;0.00;;;;;;;;;;1773882;27;20234;-62
2023/10/30 04:18:31;;;;;;;0.00;0.00;;;;;;;;;;1773921;27;20203;-62
2023/10/30 04:19:23;;;;;;;0.00;0.00;;;;;;;;;;1773975;27;20203;-62
2023/10/30 04:20:14;;;;;;;0.00;0.00;;;;;;;;;;1773086;27;20303;-61
2023/10/30 04:21:06;;;;;;;0.00;0.00;;;;;;;;;;1774106;27;20768;-63
2023/10/30 04:21:57;;;;;;;0.00;0.00;;;;;;;;;;1773356;27;20250;-62
2023/10/30 04:22:49;;;;;;;0.00;0.00;;;;;;;;;;1766859;27;20214;-62
2023/10/30 04:23:42;;;;;;;0.00;0.00;;;;;;;;;;1773280;27;20264;-62
2023/10/30 04:24:33;;;;;;;0.00;0.00;;;;;;;;;;1773552;27;20235;-62
2023/10/30 04:25:25;;;;;;;0.00;0.00;;;;;;;;;;1773887;27;20196;-62
2023/10/30 04:26:17;;;;;;;0.00;0.00;;;;;;;;;;1773609;27;20686;-62
2023/10/30 04:27:10;;;;;;;0.00;0.00;;;;;;;;;;1773887;27;20199;-62
2023/10/30 04:28:01;;;;;;;0.00;0.00;;;;;;;;;;1771320;27;20191;-63
2023/10/30 04:28:52;;;;;;;0.00;0.00;;;;;;;;;;1774219;27;20706;-62
2023/10/30 04:29:45;;;;;;;0.00;0.00;;;;;;;;;;1774093;27;20195;-63
2023/10/30 04:30:36;;;;;;;0.00;0.00;;;;;;;;;;1773664;27;20235;-62
2023/10/30 04:31:27;;;;;;;0.00;0.00;;;;;;;;;;1773914;27;20290;-63
2023/10/30 04:32:20;;;;;;;0.00;0.00;;;;;;;;;;1773713;27;20229;-62
2023/10/30 04:33:11;;;;;;;0.00;0.00;;;;;;;;;;1773848;27;20689;-63
2023/10/30 04:34:02;;;;;;;0.00;0.00;;;;;;;;;;1773925;27;20230;-62
2023/10/30 04:34:54;;;;;;;0.00;0.00;;;;;;;;;;1774103;27;20278;-62
2023/10/30 04:35:45;;;;;;;0.00;0.00;;;;;;;;;;1773873;27;20235;-62
2023/10/30 04:36:37;;;;;;;0.00;0.00;;;;;;;;;;1773594;27;20196;-62
2023/10/30 04:37:28;;;;;;;0.00;0.00;;;;;;;;;;1774173;27;20207;-62
2023/10/30 04:38:19;;;;;;;0.00;0.00;;;;;;;;;;1773758;27;20278;-62
2023/10/30 04:39:11;;;;;;;0.00;0.00;;;;;;;;;;1773966;27;20204;-63
2023/10/30 04:40:04;;;;;;;0.00;0.00;;;;;;;;;;1773789;27;20976;-62
2023/10/30 04:40:56;;;;;;;0.00;0.00;;;;;;;;;;1774083;27;20223;-62
2023/10/30 04:41:47;;;;;;;0.00;0.00;;;;;;;;;;1773277;27;20267;-63
2023/10/30 04:42:38;;;;;;;0.00;0.00;;;;;;;;;;1773888;27;20286;-63
2023/10/30 04:43:30;;;;;;;0.00;0.00;;;;;;;;;;1773616;27;20204;-63
2023/10/30 04:44:21;;;;;;;0.00;0.00;;;;;;;;;;1773886;27;20235;-63
2023/10/30 04:45:13;;;;;;;0.00;0.00;;;;;;;;;;1773438;27;20294;-62
2023/10/30 04:46:06;;;;;;;0.00;0.00;;;;;;;;;;1773754;27;20213;-62
2023/10/30 04:46:57;;;;;;;0.00;0.00;;;;;;;;;;1773913;27;20343;-62
2023/10/30 04:47:48;;;;;;;0.00;0.00;;;;;;;;;;1774013;27;20327;-62
2023/10/30 04:48:40;;;;;;;0.00;0.00;;;;;;;;;;1773840;27;20766;-62
2023/10/30 04:49:34;;;;;;;0.00;0.00;;;;;;;;;;1773841;27;20231;-62
2023/10/30 04:50:25;;;;;;;0.00;0.00;;;;;;;;;;1773162;27;20702;-64
2023/10/30 04:51:17;;;;;;;0.00;0.00;;;;;;;;;;1773551;27;20226;-63
2023/10/30 04:52:08;;;;;;;0.00;0.00;;;;;;;;;;1770318;27;20234;-64
2023/10/30 04:52:59;;;;;;;0.00;0.00;;;;;;;;;;1760624;27;20284;-62
2023/10/30 04:53:51;;;;;;;0.00;0.00;;;;;;;;;;1773386;27;20657;-63
2023/10/30 04:54:42;;;;;;;0.00;0.00;;;;;;;;;;1774002;27;20294;-63
2023/10/30 04:55:34;;;;;;;0.00;0.00;;;;;;;;;;1773367;27;20635;-63
2023/10/30 04:56:26;;;;;;;0.00;0.00;;;;;;;;;;1773652;27;20195;-63
2023/10/30 04:57:17;;;;;;;0.00;0.00;;;;;;;;;;1773484;27;20260;-63
2023/10/30 04:58:09;;;;;;;0.00;0.00;;;;;;;;;;1773912;27;20231;-63
2023/10/30 04:59:00;;;;;;;0.00;0.00;;;;;;;;;;1774377;27;20227;-63
2023/10/30 04:59:52;;;;;;;0.00;0.00;;;;;;;;;;1773541;27;20692;-63
2023/10/30 05:00:45;;;;;;;0.00;0.00;;;;;;;;;;1773784;27;20241;-63
2023/10/30 05:01:37;;;;;;;0.00;0.00;;;;;;;;;;1771135;27;20204;-62
2023/10/30 05:02:28;;;;;;;0.00;0.00;;;;;;;;;;1773180;27;20240;-62
2023/10/30 05:03:19;;;;;;;0.00;0.00;;;;;;;;;;1773375;27;20238;-62
2023/10/30 05:04:11;;;;;;;0.00;0.00;;;;;;;;;;1773817;27;20566;-62
2023/10/30 05:05:02;;;;;;;0.00;0.00;;;;;;;;;;1773916;27;20242;-62
2023/10/30 05:05:54;;;;;;;0.00;0.00;;;;;;;;;;1770853;27;20230;-62
2023/10/30 05:06:46;;;;;;;0.00;0.00;;;;;;;;;;1773370;27;20318;-62
2023/10/30 05:07:37;;;;;;;0.00;0.00;;;;;;;;;;1773756;27;20207;-62
2023/10/30 05:08:29;;;;;;;0.00;0.00;;;;;;;;;;1773233;27;20199;-62
2023/10/30 05:09:20;;;;;;;0.00;0.00;;;;;;;;;;1773951;27;20235;-62
2023/10/30 05:10:12;;;;;;;0.00;0.00;;;;;;;;;;1773540;27;20658;-61